sensor_id;sensor_type;location;lat;lon;timestamp;P1;durP1;ratioP1;P2;durP2;ratioP2
47713;SDS011;33475;46.614;13.888;2022-12-01T00:02:24;40.13;;;17.80;;
47713;SDS011;33475;46.614;13.888;2022-12-01T00:04:53;30.63;;;16.70;;
47713;SDS011;33475;46.614;13.888;2022-12-01T00:07:20;30.60;;;16.35;;
47713;SDS011;33475;46.614;13.888;2022-12-01T00:09:46;36.38;;;18.33;;
47713;SDS011;33475;46.614;13.888;2022-12-01T00:12:31;37.55;;;18.33;;
47713;SDS011;33475;46.614;13.888;2022-12-01T00:14:57;29.33;;;16.58;;
47713;SDS011;33475;46.614;13.888;2022-12-01T00:17:26;34.90;;;18.30;;
47713;SDS011;33475;46.614;13.888;2022-12-01T00:19:53;35.70;;;17.52;;
47713;SDS011;33475;46.614;13.888;2022-12-01T00:22:20;28.52;;;17.42;;
47713;SDS011;33475;46.614;13.888;2022-12-01T00:24:46;41.83;;;18.48;;
47713;SDS011;33475;46.614;13.888;2022-12-01T00:27:13;37.60;;;18.33;;
47713;SDS011;33475;46.614;13.888;2022-12-01T00:29:39;33.60;;;18.10;;
47713;SDS011;33475;46.614;13.888;2022-12-01T00:32:05;31.70;;;17.23;;
47713;SDS011;33475;46.614;13.888;2022-12-01T00:34:31;31.40;;;17.73;;
47713;SDS011;33475;46.614;13.888;2022-12-01T00:36:57;33.13;;;18.08;;
47713;SDS011;33475;46.614;13.888;2022-12-01T00:39:24;34.78;;;17.73;;
47713;SDS011;33475;46.614;13.888;2022-12-01T00:41:50;27.83;;;15.88;;
47713;SDS011;33475;46.614;13.888;2022-12-01T00:44:16;32.70;;;17.95;;
47713;SDS011;33475;46.614;13.888;2022-12-01T00:46:43;28.95;;;16.55;;
47713;SDS011;33475;46.614;13.888;2022-12-01T00:49:11;30.60;;;16.52;;
47713;SDS011;33475;46.614;13.888;2022-12-01T00:51:37;29.15;;;16.42;;
47713;SDS011;33475;46.614;13.888;2022-12-01T00:54:03;28.38;;;16.15;;
47713;SDS011;33475;46.614;13.888;2022-12-01T00:56:29;29.27;;;16.75;;
47713;SDS011;33475;46.614;13.888;2022-12-01T00:58:55;32.42;;;16.70;;
47713;SDS011;33475;46.614;13.888;2022-12-01T01:01:22;30.85;;;16.88;;
47713;SDS011;33475;46.614;13.888;2022-12-01T01:03:48;29.90;;;16.40;;
47713;SDS011;33475;46.614;13.888;2022-12-01T01:06:14;32.90;;;17.70;;
47713;SDS011;33475;46.614;13.888;2022-12-01T01:08:40;31.23;;;16.85;;
47713;SDS011;33475;46.614;13.888;2022-12-01T01:11:07;30.10;;;16.08;;
47713;SDS011;33475;46.614;13.888;2022-12-01T01:13:34;27.48;;;16.40;;
47713;SDS011;33475;46.614;13.888;2022-12-01T01:16:09;30.25;;;16.38;;
47713;SDS011;33475;46.614;13.888;2022-12-01T01:18:37;31.33;;;16.50;;
47713;SDS011;33475;46.614;13.888;2022-12-01T01:21:04;28.50;;;16.95;;
47713;SDS011;33475;46.614;13.888;2022-12-01T01:23:31;28.42;;;16.00;;
47713;SDS011;33475;46.614;13.888;2022-12-01T01:26:04;27.75;;;17.38;;
47713;SDS011;33475;46.614;13.888;2022-12-01T01:28:31;27.08;;;15.50;;
47713;SDS011;33475;46.614;13.888;2022-12-01T01:30:58;32.42;;;16.42;;
47713;SDS011;33475;46.614;13.888;2022-12-01T01:33:24;29.65;;;16.15;;
47713;SDS011;33475;46.614;13.888;2022-12-01T01:35:50;31.25;;;18.08;;
47713;SDS011;33475;46.614;13.888;2022-12-01T01:38:16;32.53;;;16.95;;
47713;SDS011;33475;46.614;13.888;2022-12-01T01:40:44;31.30;;;17.08;;
47713;SDS011;33475;46.614;13.888;2022-12-01T01:43:17;26.92;;;15.77;;
47713;SDS011;33475;46.614;13.888;2022-12-01T01:46:03;28.00;;;16.17;;
47713;SDS011;33475;46.614;13.888;2022-12-01T01:48:29;26.85;;;16.23;;
47713;SDS011;33475;46.614;13.888;2022-12-01T01:50:55;26.60;;;15.07;;
47713;SDS011;33475;46.614;13.888;2022-12-01T01:53:21;26.33;;;15.80;;
47713;SDS011;33475;46.614;13.888;2022-12-01T01:55:50;24.17;;;14.75;;
47713;SDS011;33475;46.614;13.888;2022-12-01T01:58:19;28.73;;;15.50;;
47713;SDS011;33475;46.614;13.888;2022-12-01T02:00:45;25.30;;;15.07;;
47713;SDS011;33475;46.614;13.888;2022-12-01T02:03:14;28.90;;;15.85;;
47713;SDS011;33475;46.614;13.888;2022-12-01T02:15:21;33.70;;;15.73;;
47713;SDS011;33475;46.614;13.888;2022-12-01T02:18:00;29.80;;;16.80;;
47713;SDS011;33475;46.614;13.888;2022-12-01T02:33:25;23.02;;;15.10;;
47713;SDS011;33475;46.614;13.888;2022-12-01T02:35:59;24.00;;;14.52;;
47713;SDS011;33475;46.614;13.888;2022-12-01T02:38:50;26.23;;;15.07;;
47713;SDS011;33475;46.614;13.888;2022-12-01T02:41:26;27.60;;;15.85;;
47713;SDS011;33475;46.614;13.888;2022-12-01T02:47:07;24.75;;;17.17;;
47713;SDS011;33475;46.614;13.888;2022-12-01T02:49:17;31.08;;;16.23;;
47713;SDS011;33475;46.614;13.888;2022-12-01T02:51:45;26.73;;;15.88;;
47713;SDS011;33475;46.614;13.888;2022-12-01T02:54:13;33.08;;;16.55;;
47713;SDS011;33475;46.614;13.888;2022-12-01T02:56:42;26.92;;;16.20;;
47713;SDS011;33475;46.614;13.888;2022-12-01T02:59:09;30.05;;;17.38;;
47713;SDS011;33475;46.614;13.888;2022-12-01T03:12:56;31.73;;;18.63;;
47713;SDS011;33475;46.614;13.888;2022-12-01T03:22:59;28.00;;;17.02;;
47713;SDS011;33475;46.614;13.888;2022-12-01T03:25:27;41.42;;;19.42;;
47713;SDS011;33475;46.614;13.888;2022-12-01T03:27:54;28.90;;;17.67;;
47713;SDS011;33475;46.614;13.888;2022-12-01T03:30:22;30.90;;;17.95;;
47713;SDS011;33475;46.614;13.888;2022-12-01T03:33:00;31.48;;;17.15;;
47713;SDS011;33475;46.614;13.888;2022-12-01T03:35:49;32.28;;;16.52;;
47713;SDS011;33475;46.614;13.888;2022-12-01T03:38:18;26.52;;;16.25;;
47713;SDS011;33475;46.614;13.888;2022-12-01T03:40:46;27.38;;;15.20;;
47713;SDS011;33475;46.614;13.888;2022-12-01T03:43:15;28.27;;;15.45;;
47713;SDS011;33475;46.614;13.888;2022-12-01T03:48:22;24.25;;;14.27;;
47713;SDS011;33475;46.614;13.888;2022-12-01T03:53:37;27.88;;;14.40;;
47713;SDS011;33475;46.614;13.888;2022-12-01T03:56:08;27.98;;;15.20;;
47713;SDS011;33475;46.614;13.888;2022-12-01T03:58:36;27.70;;;14.20;;
47713;SDS011;33475;46.614;13.888;2022-12-01T04:01:04;25.08;;;14.82;;
47713;SDS011;33475;46.614;13.888;2022-12-01T04:03:32;25.02;;;14.88;;
47713;SDS011;33475;46.614;13.888;2022-12-01T04:05:58;29.40;;;16.15;;
47713;SDS011;33475;46.614;13.888;2022-12-01T04:08:24;27.08;;;15.30;;
47713;SDS011;33475;46.614;13.888;2022-12-01T04:10:50;30.35;;;15.85;;
47713;SDS011;33475;46.614;13.888;2022-12-01T04:13:17;24.45;;;14.10;;
47713;SDS011;33475;46.614;13.888;2022-12-01T04:15:52;28.50;;;16.35;;
47713;SDS011;33475;46.614;13.888;2022-12-01T04:18:19;23.42;;;15.15;;
47713;SDS011;33475;46.614;13.888;2022-12-01T04:20:46;28.13;;;15.90;;
47713;SDS011;33475;46.614;13.888;2022-12-01T04:23:13;23.63;;;14.95;;
47713;SDS011;33475;46.614;13.888;2022-12-01T04:26:00;24.33;;;14.63;;
47713;SDS011;33475;46.614;13.888;2022-12-01T04:28:26;28.15;;;15.95;;
47713;SDS011;33475;46.614;13.888;2022-12-01T04:30:53;24.63;;;16.27;;
47713;SDS011;33475;46.614;13.888;2022-12-01T04:33:19;28.00;;;15.50;;
47713;SDS011;33475;46.614;13.888;2022-12-01T04:35:54;25.52;;;15.75;;
47713;SDS011;33475;46.614;13.888;2022-12-01T04:40:46;31.50;;;15.93;;
47713;SDS011;33475;46.614;13.888;2022-12-01T04:43:13;34.03;;;16.60;;
47713;SDS011;33475;46.614;13.888;2022-12-01T04:45:39;28.52;;;16.70;;
47713;SDS011;33475;46.614;13.888;2022-12-01T04:48:05;32.30;;;17.00;;
47713;SDS011;33475;46.614;13.888;2022-12-01T04:50:31;26.80;;;16.27;;
47713;SDS011;33475;46.614;13.888;2022-12-01T04:52:57;23.40;;;15.40;;
47713;SDS011;33475;46.614;13.888;2022-12-01T04:55:23;24.65;;;15.73;;
47713;SDS011;33475;46.614;13.888;2022-12-01T04:57:50;27.73;;;16.40;;
47713;SDS011;33475;46.614;13.888;2022-12-01T05:00:16;27.38;;;16.30;;
47713;SDS011;33475;46.614;13.888;2022-12-01T05:02:43;28.50;;;15.63;;
47713;SDS011;33475;46.614;13.888;2022-12-01T05:05:10;24.25;;;15.98;;
47713;SDS011;33475;46.614;13.888;2022-12-01T05:07:36;31.10;;;17.10;;
47713;SDS011;33475;46.614;13.888;2022-12-01T05:10:02;26.25;;;16.15;;
47713;SDS011;33475;46.614;13.888;2022-12-01T05:12:29;25.10;;;15.25;;
47713;SDS011;33475;46.614;13.888;2022-12-01T05:14:55;27.88;;;15.40;;
47713;SDS011;33475;46.614;13.888;2022-12-01T05:17:21;29.92;;;16.67;;
47713;SDS011;33475;46.614;13.888;2022-12-01T05:19:48;25.58;;;15.55;;
47713;SDS011;33475;46.614;13.888;2022-12-01T05:22:32;34.90;;;16.45;;
47713;SDS011;33475;46.614;13.888;2022-12-01T05:24:58;29.35;;;16.30;;
47713;SDS011;33475;46.614;13.888;2022-12-01T05:27:25;34.00;;;17.90;;
47713;SDS011;33475;46.614;13.888;2022-12-01T05:29:51;31.52;;;16.33;;
47713;SDS011;33475;46.614;13.888;2022-12-01T05:32:17;30.75;;;17.85;;
47713;SDS011;33475;46.614;13.888;2022-12-01T05:34:43;42.40;;;19.75;;
47713;SDS011;33475;46.614;13.888;2022-12-01T05:37:09;37.38;;;19.10;;
47713;SDS011;33475;46.614;13.888;2022-12-01T05:39:35;38.35;;;19.55;;
47713;SDS011;33475;46.614;13.888;2022-12-01T05:42:01;32.30;;;19.15;;
47713;SDS011;33475;46.614;13.888;2022-12-01T05:44:27;37.17;;;18.67;;
47713;SDS011;33475;46.614;13.888;2022-12-01T05:46:54;35.58;;;18.77;;
47713;SDS011;33475;46.614;13.888;2022-12-01T05:49:20;43.80;;;18.63;;
47713;SDS011;33475;46.614;13.888;2022-12-01T05:51:46;36.22;;;17.33;;
47713;SDS011;33475;46.614;13.888;2022-12-01T05:54:12;32.35;;;16.60;;
47713;SDS011;33475;46.614;13.888;2022-12-01T05:56:40;37.25;;;16.85;;
47713;SDS011;33475;46.614;13.888;2022-12-01T05:59:06;29.70;;;17.45;;
47713;SDS011;33475;46.614;13.888;2022-12-01T06:01:32;33.70;;;16.17;;
47713;SDS011;33475;46.614;13.888;2022-12-01T06:03:58;34.38;;;17.70;;
47713;SDS011;33475;46.614;13.888;2022-12-01T06:06:25;31.35;;;17.40;;
47713;SDS011;33475;46.614;13.888;2022-12-01T06:08:51;37.70;;;16.15;;
47713;SDS011;33475;46.614;13.888;2022-12-01T06:11:17;33.17;;;16.15;;
47713;SDS011;33475;46.614;13.888;2022-12-01T06:13:43;31.70;;;15.70;;
47713;SDS011;33475;46.614;13.888;2022-12-01T06:16:09;25.92;;;14.38;;
47713;SDS011;33475;46.614;13.888;2022-12-01T06:18:36;20.67;;;13.75;;
47713;SDS011;33475;46.614;13.888;2022-12-01T06:21:04;22.10;;;14.50;;
47713;SDS011;33475;46.614;13.888;2022-12-01T06:23:30;23.83;;;14.23;;
47713;SDS011;33475;46.614;13.888;2022-12-01T06:25:57;24.48;;;13.82;;
47713;SDS011;33475;46.614;13.888;2022-12-01T06:28:23;25.48;;;16.17;;
47713;SDS011;33475;46.614;13.888;2022-12-01T06:30:49;26.45;;;16.83;;
47713;SDS011;33475;46.614;13.888;2022-12-01T06:33:15;30.52;;;19.38;;
47713;SDS011;33475;46.614;13.888;2022-12-01T06:35:42;32.13;;;17.23;;
47713;SDS011;33475;46.614;13.888;2022-12-01T06:38:08;23.70;;;15.38;;
47713;SDS011;33475;46.614;13.888;2022-12-01T06:40:34;26.38;;;15.18;;
47713;SDS011;33475;46.614;13.888;2022-12-01T06:43:01;28.13;;;16.40;;
47713;SDS011;33475;46.614;13.888;2022-12-01T06:45:27;28.27;;;15.50;;
47713;SDS011;33475;46.614;13.888;2022-12-01T06:47:54;27.58;;;16.02;;
47713;SDS011;33475;46.614;13.888;2022-12-01T06:50:20;29.35;;;14.82;;
47713;SDS011;33475;46.614;13.888;2022-12-01T06:52:47;24.55;;;13.73;;
47713;SDS011;33475;46.614;13.888;2022-12-01T06:55:13;24.80;;;14.18;;
47713;SDS011;33475;46.614;13.888;2022-12-01T06:57:40;26.92;;;14.05;;
47713;SDS011;33475;46.614;13.888;2022-12-01T07:00:07;24.38;;;12.75;;
47713;SDS011;33475;46.614;13.888;2022-12-01T07:02:34;18.65;;;12.27;;
47713;SDS011;33475;46.614;13.888;2022-12-01T07:05:00;18.58;;;12.05;;
47713;SDS011;33475;46.614;13.888;2022-12-01T07:07:26;24.20;;;12.98;;
47713;SDS011;33475;46.614;13.888;2022-12-01T07:09:53;18.92;;;13.18;;
47713;SDS011;33475;46.614;13.888;2022-12-01T07:12:19;15.20;;;10.55;;
47713;SDS011;33475;46.614;13.888;2022-12-01T07:14:45;28.73;;;13.75;;
47713;SDS011;33475;46.614;13.888;2022-12-01T07:17:11;20.77;;;13.45;;
47713;SDS011;33475;46.614;13.888;2022-12-01T07:19:37;25.23;;;17.27;;
47713;SDS011;33475;46.614;13.888;2022-12-01T07:22:03;18.70;;;10.75;;
47713;SDS011;33475;46.614;13.888;2022-12-01T07:24:29;15.93;;;10.80;;
47713;SDS011;33475;46.614;13.888;2022-12-01T07:26:55;19.17;;;13.15;;
47713;SDS011;33475;46.614;13.888;2022-12-01T07:29:22;17.73;;;11.77;;
47713;SDS011;33475;46.614;13.888;2022-12-01T07:31:48;15.75;;;12.13;;
47713;SDS011;33475;46.614;13.888;2022-12-01T07:34:14;18.08;;;12.93;;
47713;SDS011;33475;46.614;13.888;2022-12-01T07:36:40;19.00;;;13.30;;
47713;SDS011;33475;46.614;13.888;2022-12-01T07:39:07;18.75;;;12.48;;
47713;SDS011;33475;46.614;13.888;2022-12-01T07:41:33;18.50;;;12.73;;
47713;SDS011;33475;46.614;13.888;2022-12-01T07:44:00;14.57;;;11.52;;
47713;SDS011;33475;46.614;13.888;2022-12-01T07:46:27;16.77;;;11.43;;
47713;SDS011;33475;46.614;13.888;2022-12-01T07:48:53;13.05;;;9.30;;
47713;SDS011;33475;46.614;13.888;2022-12-01T07:51:20;13.65;;;9.80;;
47713;SDS011;33475;46.614;13.888;2022-12-01T07:53:47;11.05;;;8.95;;
47713;SDS011;33475;46.614;13.888;2022-12-01T07:56:13;17.42;;;11.43;;
47713;SDS011;33475;46.614;13.888;2022-12-01T07:58:40;14.05;;;9.40;;
47713;SDS011;33475;46.614;13.888;2022-12-01T08:01:07;11.80;;;10.05;;
47713;SDS011;33475;46.614;13.888;2022-12-01T08:03:34;11.38;;;10.10;;
47713;SDS011;33475;46.614;13.888;2022-12-01T08:06:01;13.40;;;9.05;;
47713;SDS011;33475;46.614;13.888;2022-12-01T08:08:27;13.60;;;10.77;;
47713;SDS011;33475;46.614;13.888;2022-12-01T08:10:58;14.55;;;9.45;;
47713;SDS011;33475;46.614;13.888;2022-12-01T08:13:24;15.73;;;10.20;;
47713;SDS011;33475;46.614;13.888;2022-12-01T08:15:51;13.93;;;9.80;;
47713;SDS011;33475;46.614;13.888;2022-12-01T08:18:17;22.70;;;10.27;;
47713;SDS011;33475;46.614;13.888;2022-12-01T08:20:43;14.18;;;9.27;;
47713;SDS011;33475;46.614;13.888;2022-12-01T08:23:09;13.68;;;9.95;;
47713;SDS011;33475;46.614;13.888;2022-12-01T08:25:35;17.88;;;9.90;;
47713;SDS011;33475;46.614;13.888;2022-12-01T08:28:02;12.15;;;9.15;;
47713;SDS011;33475;46.614;13.888;2022-12-01T08:30:28;12.88;;;9.40;;
47713;SDS011;33475;46.614;13.888;2022-12-01T08:32:54;12.43;;;9.60;;
47713;SDS011;33475;46.614;13.888;2022-12-01T08:35:21;10.32;;;8.60;;
47713;SDS011;33475;46.614;13.888;2022-12-01T08:37:47;15.48;;;9.18;;
47713;SDS011;33475;46.614;13.888;2022-12-01T08:40:13;19.27;;;8.90;;
47713;SDS011;33475;46.614;13.888;2022-12-01T08:42:39;12.82;;;9.30;;
47713;SDS011;33475;46.614;13.888;2022-12-01T08:45:05;14.27;;;10.27;;
47713;SDS011;33475;46.614;13.888;2022-12-01T08:47:32;13.95;;;10.45;;
47713;SDS011;33475;46.614;13.888;2022-12-01T08:49:58;15.80;;;10.13;;
47713;SDS011;33475;46.614;13.888;2022-12-01T08:52:24;20.95;;;11.25;;
47713;SDS011;33475;46.614;13.888;2022-12-01T08:54:50;19.63;;;11.75;;
47713;SDS011;33475;46.614;13.888;2022-12-01T08:57:16;13.15;;;10.07;;
47713;SDS011;33475;46.614;13.888;2022-12-01T08:59:42;11.98;;;9.10;;
47713;SDS011;33475;46.614;13.888;2022-12-01T09:02:12;18.70;;;11.60;;
47713;SDS011;33475;46.614;13.888;2022-12-01T09:04:39;11.48;;;9.90;;
47713;SDS011;33475;46.614;13.888;2022-12-01T09:07:08;24.08;;;12.20;;
47713;SDS011;33475;46.614;13.888;2022-12-01T09:09:35;14.55;;;9.75;;
47713;SDS011;33475;46.614;13.888;2022-12-01T09:12:01;14.63;;;8.50;;
47713;SDS011;33475;46.614;13.888;2022-12-01T09:14:27;11.80;;;8.65;;
47713;SDS011;33475;46.614;13.888;2022-12-01T09:16:53;9.80;;;7.53;;
47713;SDS011;33475;46.614;13.888;2022-12-01T09:19:20;11.85;;;9.13;;
47713;SDS011;33475;46.614;13.888;2022-12-01T09:21:46;13.43;;;9.40;;
47713;SDS011;33475;46.614;13.888;2022-12-01T09:24:13;11.20;;;8.02;;
47713;SDS011;33475;46.614;13.888;2022-12-01T09:26:40;10.57;;;8.38;;
47713;SDS011;33475;46.614;13.888;2022-12-01T09:29:07;11.13;;;7.03;;
47713;SDS011;33475;46.614;13.888;2022-12-01T09:31:34;11.88;;;8.45;;
47713;SDS011;33475;46.614;13.888;2022-12-01T09:34:01;11.32;;;6.97;;
47713;SDS011;33475;46.614;13.888;2022-12-01T09:36:28;9.57;;;7.90;;
47713;SDS011;33475;46.614;13.888;2022-12-01T09:38:55;8.75;;;6.43;;
47713;SDS011;33475;46.614;13.888;2022-12-01T09:41:32;17.00;;;6.43;;
47713;SDS011;33475;46.614;13.888;2022-12-01T09:44:15;9.38;;;6.80;;
47713;SDS011;33475;46.614;13.888;2022-12-01T09:46:55;11.15;;;6.18;;
47713;SDS011;33475;46.614;13.888;2022-12-01T09:49:46;7.65;;;6.15;;
47713;SDS011;33475;46.614;13.888;2022-12-01T09:52:10;7.25;;;5.82;;
47713;SDS011;33475;46.614;13.888;2022-12-01T09:54:37;12.02;;;7.15;;
47713;SDS011;33475;46.614;13.888;2022-12-01T09:57:03;8.55;;;6.68;;
47713;SDS011;33475;46.614;13.888;2022-12-01T09:59:30;11.32;;;6.43;;
47713;SDS011;33475;46.614;13.888;2022-12-01T10:02:00;8.48;;;6.03;;
47713;SDS011;33475;46.614;13.888;2022-12-01T10:04:28;6.13;;;5.45;;
47713;SDS011;33475;46.614;13.888;2022-12-01T10:07:00;6.60;;;5.80;;
47713;SDS011;33475;46.614;13.888;2022-12-01T10:12:07;8.48;;;5.18;;
47713;SDS011;33475;46.614;13.888;2022-12-01T10:14:36;9.05;;;5.07;;
47713;SDS011;33475;46.614;13.888;2022-12-01T10:17:12;9.43;;;4.82;;
47713;SDS011;33475;46.614;13.888;2022-12-01T10:24:49;5.90;;;5.18;;
47713;SDS011;33475;46.614;13.888;2022-12-01T10:29:46;9.48;;;5.32;;
47713;SDS011;33475;46.614;13.888;2022-12-01T10:34:42;10.02;;;6.68;;
47713;SDS011;33475;46.614;13.888;2022-12-01T10:37:26;10.23;;;7.35;;
47713;SDS011;33475;46.614;13.888;2022-12-01T10:39:53;5.90;;;5.05;;
47713;SDS011;33475;46.614;13.888;2022-12-01T10:44:49;5.80;;;4.95;;
47713;SDS011;33475;46.614;13.888;2022-12-01T10:47:20;6.35;;;5.35;;
47713;SDS011;33475;46.614;13.888;2022-12-01T10:49:47;25.55;;;11.95;;
47713;SDS011;33475;46.614;13.888;2022-12-01T10:57:25;21.90;;;11.32;;
47713;SDS011;33475;46.614;13.888;2022-12-01T11:02:22;8.52;;;5.50;;
47713;SDS011;33475;46.614;13.888;2022-12-01T11:07:22;6.20;;;5.60;;
47713;SDS011;33475;46.614;13.888;2022-12-01T11:12:30;5.57;;;4.88;;
47713;SDS011;33475;46.614;13.888;2022-12-01T11:14:57;6.60;;;5.32;;
47713;SDS011;33475;46.614;13.888;2022-12-01T11:17:25;8.07;;;5.78;;
47713;SDS011;33475;46.614;13.888;2022-12-01T11:19:51;6.10;;;4.40;;
47713;SDS011;33475;46.614;13.888;2022-12-01T11:22:19;8.40;;;5.68;;
47713;SDS011;33475;46.614;13.888;2022-12-01T11:24:56;8.30;;;5.03;;
47713;SDS011;33475;46.614;13.888;2022-12-01T11:27:26;5.55;;;5.05;;
47713;SDS011;33475;46.614;13.888;2022-12-01T11:29:54;7.53;;;5.57;;
47713;SDS011;33475;46.614;13.888;2022-12-01T11:32:28;7.10;;;5.60;;
47713;SDS011;33475;46.614;13.888;2022-12-01T11:35:15;5.73;;;4.90;;
47713;SDS011;33475;46.614;13.888;2022-12-01T11:37:45;5.93;;;4.88;;
47713;SDS011;33475;46.614;13.888;2022-12-01T11:40:17;5.85;;;4.88;;
47713;SDS011;33475;46.614;13.888;2022-12-01T11:42:46;5.10;;;4.60;;
47713;SDS011;33475;46.614;13.888;2022-12-01T11:48:28;5.25;;;4.43;;
47713;SDS011;33475;46.614;13.888;2022-12-01T11:50:36;6.57;;;5.35;;
47713;SDS011;33475;46.614;13.888;2022-12-01T11:53:02;6.22;;;4.90;;
47713;SDS011;33475;46.614;13.888;2022-12-01T11:55:29;6.40;;;4.60;;
47713;SDS011;33475;46.614;13.888;2022-12-01T11:57:58;4.80;;;4.30;;
47713;SDS011;33475;46.614;13.888;2022-12-01T12:00:26;6.00;;;4.57;;
47713;SDS011;33475;46.614;13.888;2022-12-01T12:03:07;5.70;;;4.75;;
47713;SDS011;33475;46.614;13.888;2022-12-01T12:20:29;9.05;;;5.13;;
47713;SDS011;33475;46.614;13.888;2022-12-01T12:30:56;15.13;;;9.25;;
47713;SDS011;33475;46.614;13.888;2022-12-01T12:43:41;5.13;;;3.60;;
47713;SDS011;33475;46.614;13.888;2022-12-01T12:46:15;4.15;;;3.75;;
47713;SDS011;33475;46.614;13.888;2022-12-01T12:51:27;4.22;;;3.17;;
47713;SDS011;33475;46.614;13.888;2022-12-01T12:54:03;4.22;;;3.33;;
47713;SDS011;33475;46.614;13.888;2022-12-01T12:56:34;3.97;;;3.58;;
47713;SDS011;33475;46.614;13.888;2022-12-01T12:59:06;11.50;;;9.82;;
47713;SDS011;33475;46.614;13.888;2022-12-01T13:01:36;14.43;;;8.70;;
47713;SDS011;33475;46.614;13.888;2022-12-01T13:06:36;5.45;;;3.47;;
47713;SDS011;33475;46.614;13.888;2022-12-01T13:09:14;4.25;;;3.60;;
47713;SDS011;33475;46.614;13.888;2022-12-01T13:11:49;5.50;;;4.97;;
47713;SDS011;33475;46.614;13.888;2022-12-01T13:14:19;6.57;;;3.42;;
47713;SDS011;33475;46.614;13.888;2022-12-01T13:16:48;4.45;;;3.80;;
47713;SDS011;33475;46.614;13.888;2022-12-01T13:19:17;4.20;;;3.80;;
47713;SDS011;33475;46.614;13.888;2022-12-01T13:21:46;4.38;;;3.95;;
47713;SDS011;33475;46.614;13.888;2022-12-01T13:24:14;3.75;;;3.35;;
47713;SDS011;33475;46.614;13.888;2022-12-01T13:26:42;4.10;;;3.70;;
47713;SDS011;33475;46.614;13.888;2022-12-01T13:29:13;3.67;;;3.38;;
47713;SDS011;33475;46.614;13.888;2022-12-01T13:31:42;4.85;;;2.90;;
47713;SDS011;33475;46.614;13.888;2022-12-01T13:34:16;3.53;;;3.13;;
47713;SDS011;33475;46.614;13.888;2022-12-01T13:39:15;4.60;;;4.10;;
47713;SDS011;33475;46.614;13.888;2022-12-01T13:41:42;10.95;;;7.32;;
47713;SDS011;33475;46.614;13.888;2022-12-01T13:54:27;10.07;;;6.38;;
47713;SDS011;33475;46.614;13.888;2022-12-01T13:56:59;8.25;;;4.28;;
47713;SDS011;33475;46.614;13.888;2022-12-01T14:02:13;7.38;;;4.60;;
47713;SDS011;33475;46.614;13.888;2022-12-01T14:04:39;4.47;;;4.07;;
47713;SDS011;33475;46.614;13.888;2022-12-01T14:07:22;4.60;;;3.92;;
47713;SDS011;33475;46.614;13.888;2022-12-01T14:09:52;6.88;;;5.43;;
47713;SDS011;33475;46.614;13.888;2022-12-01T14:12:20;13.82;;;7.88;;
47713;SDS011;33475;46.614;13.888;2022-12-01T14:14:50;13.68;;;8.60;;
47713;SDS011;33475;46.614;13.888;2022-12-01T14:19:53;5.15;;;4.13;;
47713;SDS011;33475;46.614;13.888;2022-12-01T14:22:37;9.13;;;5.13;;
47713;SDS011;33475;46.614;13.888;2022-12-01T14:25:05;12.90;;;8.52;;
47713;SDS011;33475;46.614;13.888;2022-12-01T14:27:40;22.00;;;11.57;;
47713;SDS011;33475;46.614;13.888;2022-12-01T14:35:17;5.82;;;5.05;;
47713;SDS011;33475;46.614;13.888;2022-12-01T14:37:44;7.93;;;6.70;;
47713;SDS011;33475;46.614;13.888;2022-12-01T14:40:16;7.15;;;5.28;;
47713;SDS011;33475;46.614;13.888;2022-12-01T14:42:44;7.18;;;4.95;;
47713;SDS011;33475;46.614;13.888;2022-12-01T14:48:14;9.57;;;6.97;;
47713;SDS011;33475;46.614;13.888;2022-12-01T14:50:46;7.45;;;5.78;;
47713;SDS011;33475;46.614;13.888;2022-12-01T14:53:24;14.38;;;5.43;;
47713;SDS011;33475;46.614;13.888;2022-12-01T14:55:52;5.68;;;5.07;;
47713;SDS011;33475;46.614;13.888;2022-12-01T14:58:21;6.10;;;5.20;;
47713;SDS011;33475;46.614;13.888;2022-12-01T15:03:28;37.60;;;19.35;;
47713;SDS011;33475;46.614;13.888;2022-12-01T15:05:56;22.27;;;13.93;;
47713;SDS011;33475;46.614;13.888;2022-12-01T15:08:23;10.50;;;8.63;;
47713;SDS011;33475;46.614;13.888;2022-12-01T15:10:51;10.13;;;8.30;;
47713;SDS011;33475;46.614;13.888;2022-12-01T15:15:51;21.75;;;15.75;;
47713;SDS011;33475;46.614;13.888;2022-12-01T15:18:22;33.08;;;18.13;;
47713;SDS011;33475;46.614;13.888;2022-12-01T15:20:49;11.65;;;9.90;;
47713;SDS011;33475;46.614;13.888;2022-12-01T15:23:20;9.05;;;8.10;;
47713;SDS011;33475;46.614;13.888;2022-12-01T15:25:46;13.18;;;10.80;;
47713;SDS011;33475;46.614;13.888;2022-12-01T15:28:20;8.55;;;5.57;;
47713;SDS011;33475;46.614;13.888;2022-12-01T15:30:48;11.38;;;6.40;;
47713;SDS011;33475;46.614;13.888;2022-12-01T15:33:19;7.43;;;6.70;;
47713;SDS011;33475;46.614;13.888;2022-12-01T15:35:47;8.10;;;5.78;;
47713;SDS011;33475;46.614;13.888;2022-12-01T15:38:19;6.93;;;5.50;;
47713;SDS011;33475;46.614;13.888;2022-12-01T15:40:47;8.05;;;6.50;;
47713;SDS011;33475;46.614;13.888;2022-12-01T15:43:20;6.72;;;5.65;;
47713;SDS011;33475;46.614;13.888;2022-12-01T15:45:49;8.27;;;6.33;;
47713;SDS011;33475;46.614;13.888;2022-12-01T15:48:17;7.55;;;6.22;;
47713;SDS011;33475;46.614;13.888;2022-12-01T15:50:44;8.32;;;5.53;;
47713;SDS011;33475;46.614;13.888;2022-12-01T15:53:20;12.45;;;8.15;;
47713;SDS011;33475;46.614;13.888;2022-12-01T15:55:48;7.65;;;5.43;;
47713;SDS011;33475;46.614;13.888;2022-12-01T15:58:17;6.38;;;5.18;;
47713;SDS011;33475;46.614;13.888;2022-12-01T16:00:56;5.07;;;4.57;;
47713;SDS011;33475;46.614;13.888;2022-12-01T16:03:22;9.48;;;5.45;;
47713;SDS011;33475;46.614;13.888;2022-12-01T16:05:49;6.20;;;5.45;;
47713;SDS011;33475;46.614;13.888;2022-12-01T16:08:16;7.65;;;5.43;;
47713;SDS011;33475;46.614;13.888;2022-12-01T16:10:43;6.72;;;6.03;;
47713;SDS011;33475;46.614;13.888;2022-12-01T16:15:55;6.50;;;5.78;;
47713;SDS011;33475;46.614;13.888;2022-12-01T16:18:29;12.50;;;6.78;;
47713;SDS011;33475;46.614;13.888;2022-12-01T16:21:02;6.63;;;6.03;;
47713;SDS011;33475;46.614;13.888;2022-12-01T16:23:29;17.02;;;10.23;;
47713;SDS011;33475;46.614;13.888;2022-12-01T16:25:56;12.13;;;8.82;;
47713;SDS011;33475;46.614;13.888;2022-12-01T16:28:27;11.82;;;9.90;;
47713;SDS011;33475;46.614;13.888;2022-12-01T16:30:55;15.30;;;9.63;;
47713;SDS011;33475;46.614;13.888;2022-12-01T16:33:25;30.23;;;16.20;;
47713;SDS011;33475;46.614;13.888;2022-12-01T16:35:52;44.67;;;18.63;;
47713;SDS011;33475;46.614;13.888;2022-12-01T16:38:23;32.35;;;16.30;;
47713;SDS011;33475;46.614;13.888;2022-12-01T16:40:51;108.57;;;38.80;;
47713;SDS011;33475;46.614;13.888;2022-12-01T16:43:19;99.32;;;41.35;;
47713;SDS011;33475;46.614;13.888;2022-12-01T16:45:46;50.88;;;26.70;;
47713;SDS011;33475;46.614;13.888;2022-12-01T16:48:19;55.33;;;29.73;;
47713;SDS011;33475;46.614;13.888;2022-12-01T16:50:48;60.75;;;29.42;;
47713;SDS011;33475;46.614;13.888;2022-12-01T16:53:15;11.20;;;8.77;;
47713;SDS011;33475;46.614;13.888;2022-12-01T16:55:54;30.33;;;14.70;;
47713;SDS011;33475;46.614;13.888;2022-12-01T16:58:21;9.88;;;6.68;;
47713;SDS011;33475;46.614;13.888;2022-12-01T17:00:47;12.23;;;8.48;;
47713;SDS011;33475;46.614;13.888;2022-12-01T17:03:17;37.47;;;22.00;;